sensor_id;sensor_type;location;lat;lon;timestamp;temperature;humidity
318;DHT22;146;53.448;10.228;2024-01-15T00:02:39;1.60;1.00
318;DHT22;146;53.448;10.228;2024-01-15T00:05:26;1.60;1.00
318;DHT22;146;53.448;10.228;2024-01-15T00:08:23;1.60;1.00
318;DHT22;146;53.448;10.228;2024-01-15T00:11:19;1.60;1.00
318;DHT22;146;53.448;10.228;2024-01-15T00:14:07;1.70;1.00
318;DHT22;146;53.448;10.228;2024-01-15T00:16:57;1.70;1.00
318;DHT22;146;53.448;10.228;2024-01-15T00:19:44;1.80;1.00
318;DHT22;146;53.448;10.228;2024-01-15T00:22:37;1.80;1.00
318;DHT22;146;53.448;10.228;2024-01-15T00:25:27;1.90;1.00
318;DHT22;146;53.448;10.228;2024-01-15T00:28:17;2.00;1.00
318;DHT22;146;53.448;10.228;2024-01-15T00:31:19;1.90;1.00
318;DHT22;146;53.448;10.228;2024-01-15T00:34:12;1.90;1.00
318;DHT22;146;53.448;10.228;2024-01-15T00:37:11;1.70;1.00
318;DHT22;146;53.448;10.228;2024-01-15T00:40:02;1.80;1.00
318;DHT22;146;53.448;10.228;2024-01-15T00:42:51;1.70;1.00
318;DHT22;146;53.448;10.228;2024-01-15T00:45:48;1.80;1.00
318;DHT22;146;53.448;10.228;2024-01-15T00:48:36;1.70;1.00
318;DHT22;146;53.448;10.228;2024-01-15T00:51:29;1.70;1.00
318;DHT22;146;53.448;10.228;2024-01-15T00:54:19;1.80;1.00
318;DHT22;146;53.448;10.228;2024-01-15T00:57:12;1.80;1.00
318;DHT22;146;53.448;10.228;2024-01-15T00:59:59;1.80;1.00
318;DHT22;146;53.448;10.228;2024-01-15T01:02:49;1.90;1.00
318;DHT22;146;53.448;10.228;2024-01-15T01:05:38;1.90;1.00
318;DHT22;146;53.448;10.228;2024-01-15T01:08:34;1.80;1.00
318;DHT22;146;53.448;10.228;2024-01-15T01:11:27;1.70;1.00
318;DHT22;146;53.448;10.228;2024-01-15T01:14:17;1.60;1.00
318;DHT22;146;53.448;10.228;2024-01-15T01:17:04;1.70;1.00
318;DHT22;146;53.448;10.228;2024-01-15T01:19:54;1.60;1.00
318;DHT22;146;53.448;10.228;2024-01-15T01:22:48;1.70;1.00
318;DHT22;146;53.448;10.228;2024-01-15T01:25:38;1.70;1.00
318;DHT22;146;53.448;10.228;2024-01-15T01:28:31;1.70;1.00
318;DHT22;146;53.448;10.228;2024-01-15T01:31:22;1.80;1.00
318;DHT22;146;53.448;10.228;2024-01-15T01:34:09;1.90;1.00
318;DHT22;146;53.448;10.228;2024-01-15T01:37:15;1.90;1.00
318;DHT22;146;53.448;10.228;2024-01-15T01:40:16;1.90;1.00
318;DHT22;146;53.448;10.228;2024-01-15T01:43:06;1.90;1.00
318;DHT22;146;53.448;10.228;2024-01-15T01:45:57;1.90;1.00
318;DHT22;146;53.448;10.228;2024-01-15T01:48:47;2.00;1.00
318;DHT22;146;53.448;10.228;2024-01-15T01:51:37;2.00;1.00
318;DHT22;146;53.448;10.228;2024-01-15T01:54:29;2.00;1.00
318;DHT22;146;53.448;10.228;2024-01-15T01:57:19;1.90;1.00
318;DHT22;146;53.448;10.228;2024-01-15T02:00:14;1.90;1.00
318;DHT22;146;53.448;10.228;2024-01-15T02:03:05;1.90;1.00
318;DHT22;146;53.448;10.228;2024-01-15T02:05:56;1.90;1.00
318;DHT22;146;53.448;10.228;2024-01-15T02:08:46;1.80;1.00
318;DHT22;146;53.448;10.228;2024-01-15T02:11:45;1.80;1.00
318;DHT22;146;53.448;10.228;2024-01-15T02:14:40;1.70;1.00
318;DHT22;146;53.448;10.228;2024-01-15T02:17:30;1.70;1.00
318;DHT22;146;53.448;10.228;2024-01-15T02:20:25;1.80;1.00
318;DHT22;146;53.448;10.228;2024-01-15T02:23:14;1.80;1.00
318;DHT22;146;53.448;10.228;2024-01-15T02:26:22;1.90;1.00
318;DHT22;146;53.448;10.228;2024-01-15T02:29:12;1.90;1.00
318;DHT22;146;53.448;10.228;2024-01-15T02:32:08;1.90;1.00
318;DHT22;146;53.448;10.228;2024-01-15T02:34:57;2.00;1.00
318;DHT22;146;53.448;10.228;2024-01-15T02:37:52;2.00;1.00
318;DHT22;146;53.448;10.228;2024-01-15T02:40:44;2.00;1.00
318;DHT22;146;53.448;10.228;2024-01-15T02:43:37;2.00;1.00
318;DHT22;146;53.448;10.228;2024-01-15T02:46:24;2.10;1.00
318;DHT22;146;53.448;10.228;2024-01-15T02:49:11;2.00;1.00
318;DHT22;146;53.448;10.228;2024-01-15T02:52:05;2.00;1.00
318;DHT22;146;53.448;10.228;2024-01-15T02:54:52;2.00;1.00
318;DHT22;146;53.448;10.228;2024-01-15T03:00:46;2.20;1.00
318;DHT22;146;53.448;10.228;2024-01-15T03:03:36;2.20;1.00
318;DHT22;146;53.448;10.228;2024-01-15T03:06:26;2.20;1.00
318;DHT22;146;53.448;10.228;2024-01-15T03:09:22;2.30;1.00
318;DHT22;146;53.448;10.228;2024-01-15T03:12:23;2.30;1.00
318;DHT22;146;53.448;10.228;2024-01-15T03:15:12;2.30;1.00
318;DHT22;146;53.448;10.228;2024-01-15T03:17:59;2.20;1.00
318;DHT22;146;53.448;10.228;2024-01-15T03:20:58;2.20;1.00
318;DHT22;146;53.448;10.228;2024-01-15T03:23:47;2.20;1.00
318;DHT22;146;53.448;10.228;2024-01-15T03:26:34;2.10;1.00
318;DHT22;146;53.448;10.228;2024-01-15T03:29:23;2.00;1.00
318;DHT22;146;53.448;10.228;2024-01-15T03:32:12;2.00;1.00
318;DHT22;146;53.448;10.228;2024-01-15T03:35:06;2.00;1.00
318;DHT22;146;53.448;10.228;2024-01-15T03:38:02;1.80;1.00
318;DHT22;146;53.448;10.228;2024-01-15T03:40:49;1.70;1.00
318;DHT22;146;53.448;10.228;2024-01-15T03:43:37;1.70;1.00
318;DHT22;146;53.448;10.228;2024-01-15T03:46:24;1.70;1.00
318;DHT22;146;53.448;10.228;2024-01-15T03:49:12;1.70;1.00
318;DHT22;146;53.448;10.228;2024-01-15T03:52:03;1.80;1.00
318;DHT22;146;53.448;10.228;2024-01-15T03:54:53;1.70;1.00
318;DHT22;146;53.448;10.228;2024-01-15T03:58:00;1.60;1.00
318;DHT22;146;53.448;10.228;2024-01-15T04:00:49;1.70;1.00
318;DHT22;146;53.448;10.228;2024-01-15T04:03:36;1.70;1.00
318;DHT22;146;53.448;10.228;2024-01-15T04:06:25;1.70;1.00
318;DHT22;146;53.448;10.228;2024-01-15T04:09:14;1.70;1.00
318;DHT22;146;53.448;10.228;2024-01-15T04:12:08;1.70;1.00
318;DHT22;146;53.448;10.228;2024-01-15T04:14:58;1.70;1.00
318;DHT22;146;53.448;10.228;2024-01-15T04:17:52;1.80;1.00
318;DHT22;146;53.448;10.228;2024-01-15T04:20:51;1.80;1.00
318;DHT22;146;53.448;10.228;2024-01-15T04:23:47;1.90;1.00
318;DHT22;146;53.448;10.228;2024-01-15T04:26:43;1.80;1.00
318;DHT22;146;53.448;10.228;2024-01-15T04:29:39;1.80;1.00
318;DHT22;146;53.448;10.228;2024-01-15T04:32:26;1.90;1.00
318;DHT22;146;53.448;10.228;2024-01-15T04:35:14;1.90;1.00
318;DHT22;146;53.448;10.228;2024-01-15T04:38:01;1.90;1.00
318;DHT22;146;53.448;10.228;2024-01-15T04:40:49;1.80;1.00
318;DHT22;146;53.448;10.228;2024-01-15T04:43:37;1.80;1.00
318;DHT22;146;53.448;10.228;2024-01-15T04:46:24;1.80;1.00
318;DHT22;146;53.448;10.228;2024-01-15T04:49:11;1.80;1.00
318;DHT22;146;53.448;10.228;2024-01-15T04:52:12;1.80;1.00
318;DHT22;146;53.448;10.228;2024-01-15T04:54:59;1.80;1.00
318;DHT22;146;53.448;10.228;2024-01-15T04:57:48;1.80;1.00
318;DHT22;146;53.448;10.228;2024-01-15T05:00:35;1.90;1.00
318;DHT22;146;53.448;10.228;2024-01-15T05:03:22;2.00;1.00
318;DHT22;146;53.448;10.228;2024-01-15T05:06:09;2.00;1.00
318;DHT22;146;53.448;10.228;2024-01-15T05:08:57;2.00;1.00
318;DHT22;146;53.448;10.228;2024-01-15T05:11:44;2.00;1.00
318;DHT22;146;53.448;10.228;2024-01-15T05:14:32;1.90;1.00
318;DHT22;146;53.448;10.228;2024-01-15T05:17:19;2.00;1.00
318;DHT22;146;53.448;10.228;2024-01-15T05:20:07;2.00;1.00
318;DHT22;146;53.448;10.228;2024-01-15T05:22:58;1.90;1.00
318;DHT22;146;53.448;10.228;2024-01-15T05:25:46;1.90;1.00
318;DHT22;146;53.448;10.228;2024-01-15T05:28:33;1.90;1.00
318;DHT22;146;53.448;10.228;2024-01-15T05:31:30;1.80;1.00
318;DHT22;146;53.448;10.228;2024-01-15T05:34:20;1.80;1.00
318;DHT22;146;53.448;10.228;2024-01-15T05:37:07;1.80;1.00
318;DHT22;146;53.448;10.228;2024-01-15T05:39:54;1.80;1.00
318;DHT22;146;53.448;10.228;2024-01-15T05:42:41;1.90;1.00
318;DHT22;146;53.448;10.228;2024-01-15T05:45:30;1.90;1.00
318;DHT22;146;53.448;10.228;2024-01-15T05:48:23;1.90;1.00
318;DHT22;146;53.448;10.228;2024-01-15T05:51:11;2.00;1.00
318;DHT22;146;53.448;10.228;2024-01-15T05:54:10;2.00;1.00
318;DHT22;146;53.448;10.228;2024-01-15T05:57:06;2.00;1.00
318;DHT22;146;53.448;10.228;2024-01-15T05:59:54;2.00;1.00
318;DHT22;146;53.448;10.228;2024-01-15T06:02:44;1.90;1.00
318;DHT22;146;53.448;10.228;2024-01-15T06:05:33;1.90;1.00
318;DHT22;146;53.448;10.228;2024-01-15T06:08:20;2.00;1.00
318;DHT22;146;53.448;10.228;2024-01-15T06:11:15;2.00;1.00
318;DHT22;146;53.448;10.228;2024-01-15T06:14:05;2.00;1.00
318;DHT22;146;53.448;10.228;2024-01-15T06:16:56;2.00;1.00
318;DHT22;146;53.448;10.228;2024-01-15T06:19:45;2.00;1.00
318;DHT22;146;53.448;10.228;2024-01-15T06:22:34;1.90;1.00
318;DHT22;146;53.448;10.228;2024-01-15T06:25:22;1.90;1.00
318;DHT22;146;53.448;10.228;2024-01-15T06:28:09;2.00;1.00
318;DHT22;146;53.448;10.228;2024-01-15T06:30:57;2.00;1.00
318;DHT22;146;53.448;10.228;2024-01-15T06:33:50;2.00;1.00
318;DHT22;146;53.448;10.228;2024-01-15T06:36:40;2.00;1.00
318;DHT22;146;53.448;10.228;2024-01-15T06:39:29;2.00;1.00
318;DHT22;146;53.448;10.228;2024-01-15T06:42:19;2.00;1.00
318;DHT22;146;53.448;10.228;2024-01-15T06:45:12;2.00;1.00
318;DHT22;146;53.448;10.228;2024-01-15T06:48:04;2.00;1.00
318;DHT22;146;53.448;10.228;2024-01-15T06:50:57;2.00;1.00
318;DHT22;146;53.448;10.228;2024-01-15T06:53:44;2.00;1.00
318;DHT22;146;53.448;10.228;2024-01-15T06:56:35;2.10;1.00
318;DHT22;146;53.448;10.228;2024-01-15T06:59:25;2.10;1.00
318;DHT22;146;53.448;10.228;2024-01-15T07:02:18;2.10;1.00
318;DHT22;146;53.448;10.228;2024-01-15T07:05:06;2.20;1.00
318;DHT22;146;53.448;10.228;2024-01-15T07:07:54;2.10;1.00
318;DHT22;146;53.448;10.228;2024-01-15T07:11:07;2.10;1.00
318;DHT22;146;53.448;10.228;2024-01-15T07:13:58;2.10;1.00
318;DHT22;146;53.448;10.228;2024-01-15T07:16:57;2.00;1.00
318;DHT22;146;53.448;10.228;2024-01-15T07:19:44;2.00;1.00
318;DHT22;146;53.448;10.228;2024-01-15T07:22:32;2.00;1.00
318;DHT22;146;53.448;10.228;2024-01-15T07:25:22;2.00;1.00
318;DHT22;146;53.448;10.228;2024-01-15T07:28:20;2.00;1.00
318;DHT22;146;53.448;10.228;2024-01-15T07:31:11;2.00;1.00
318;DHT22;146;53.448;10.228;2024-01-15T07:34:01;2.00;1.00
318;DHT22;146;53.448;10.228;2024-01-15T07:36:48;2.10;1.00
318;DHT22;146;53.448;10.228;2024-01-15T07:39:35;2.00;1.00
318;DHT22;146;53.448;10.228;2024-01-15T07:42:22;2.10;1.00
318;DHT22;146;53.448;10.228;2024-01-15T07:45:10;2.10;1.00
318;DHT22;146;53.448;10.228;2024-01-15T07:47:59;2.10;1.00
318;DHT22;146;53.448;10.228;2024-01-15T07:50:46;2.10;1.00
318;DHT22;146;53.448;10.228;2024-01-15T07:53:33;2.20;1.00
318;DHT22;146;53.448;10.228;2024-01-15T07:56:26;2.20;1.00
318;DHT22;146;53.448;10.228;2024-01-15T07:59:13;2.10;1.00
318;DHT22;146;53.448;10.228;2024-01-15T08:02:06;2.10;1.00
318;DHT22;146;53.448;10.228;2024-01-15T08:05:02;2.10;1.00
318;DHT22;146;53.448;10.228;2024-01-15T08:07:52;2.00;1.00
318;DHT22;146;53.448;10.228;2024-01-15T08:10:41;2.10;1.00
318;DHT22;146;53.448;10.228;2024-01-15T08:13:29;2.10;1.00
318;DHT22;146;53.448;10.228;2024-01-15T08:16:19;2.20;1.00
318;DHT22;146;53.448;10.228;2024-01-15T08:19:06;2.10;1.00
318;DHT22;146;53.448;10.228;2024-01-15T08:21:57;2.20;1.00
318;DHT22;146;53.448;10.228;2024-01-15T08:24:44;2.10;1.00
318;DHT22;146;53.448;10.228;2024-01-15T08:27:35;2.10;1.00
318;DHT22;146;53.448;10.228;2024-01-15T08:30:25;2.10;1.00
318;DHT22;146;53.448;10.228;2024-01-15T08:33:34;2.20;1.00
318;DHT22;146;53.448;10.228;2024-01-15T08:36:24;2.20;1.00
318;DHT22;146;53.448;10.228;2024-01-15T08:39:21;2.20;1.00
318;DHT22;146;53.448;10.228;2024-01-15T08:42:11;2.20;1.00
318;DHT22;146;53.448;10.228;2024-01-15T08:44:58;2.10;1.00
318;DHT22;146;53.448;10.228;2024-01-15T08:47:46;2.10;1.00
318;DHT22;146;53.448;10.228;2024-01-15T08:50:33;2.20;1.00
318;DHT22;146;53.448;10.228;2024-01-15T08:53:26;2.20;1.00
318;DHT22;146;53.448;10.228;2024-01-15T08:56:19;2.20;1.00
318;DHT22;146;53.448;10.228;2024-01-15T08:59:07;2.10;1.00
318;DHT22;146;53.448;10.228;2024-01-15T09:01:57;2.20;1.00
318;DHT22;146;53.448;10.228;2024-01-15T09:04:44;2.20;1.00
318;DHT22;146;53.448;10.228;2024-01-15T09:07:39;2.20;1.00
318;DHT22;146;53.448;10.228;2024-01-15T09:10:30;2.10;1.00
318;DHT22;146;53.448;10.228;2024-01-15T09:13:35;2.20;1.00
318;DHT22;146;53.448;10.228;2024-01-15T09:16:25;2.10;1.00
318;DHT22;146;53.448;10.228;2024-01-15T09:19:20;2.10;1.00
318;DHT22;146;53.448;10.228;2024-01-15T09:22:12;2.10;1.00
318;DHT22;146;53.448;10.228;2024-01-15T09:25:00;2.10;1.00
318;DHT22;146;53.448;10.228;2024-01-15T09:31:39;2.00;1.00
318;DHT22;146;53.448;10.228;2024-01-15T09:34:27;2.10;1.00
318;DHT22;146;53.448;10.228;2024-01-15T09:37:19;2.10;1.00
318;DHT22;146;53.448;10.228;2024-01-15T09:40:08;2.10;1.00
318;DHT22;146;53.448;10.228;2024-01-15T09:42:59;2.20;1.00
318;DHT22;146;53.448;10.228;2024-01-15T09:45:59;2.30;1.00
318;DHT22;146;53.448;10.228;2024-01-15T09:48:59;2.20;1.00
318;DHT22;146;53.448;10.228;2024-01-15T09:51:58;2.30;1.00
318;DHT22;146;53.448;10.228;2024-01-15T09:54:46;2.30;1.00
318;DHT22;146;53.448;10.228;2024-01-15T09:57:33;2.30;1.00
318;DHT22;146;53.448;10.228;2024-01-15T10:00:23;2.30;1.00
318;DHT22;146;53.448;10.228;2024-01-15T10:03:13;2.40;1.00
318;DHT22;146;53.448;10.228;2024-01-15T10:06:02;2.50;1.00
318;DHT22;146;53.448;10.228;2024-01-15T10:08:56;2.50;1.00
318;DHT22;146;53.448;10.228;2024-01-15T10:11:54;2.50;1.00
318;DHT22;146;53.448;10.228;2024-01-15T10:14:50;2.40;1.00
318;DHT22;146;53.448;10.228;2024-01-15T10:17:45;2.30;1.00
318;DHT22;146;53.448;10.228;2024-01-15T10:20:35;2.20;1.00
318;DHT22;146;53.448;10.228;2024-01-15T10:23:32;2.30;1.00
318;DHT22;146;53.448;10.228;2024-01-15T10:26:25;2.20;1.00
318;DHT22;146;53.448;10.228;2024-01-15T10:29:26;2.20;1.00
318;DHT22;146;53.448;10.228;2024-01-15T10:32:21;1.90;1.00
318;DHT22;146;53.448;10.228;2024-01-15T10:38:32;1.60;1.00
318;DHT22;146;53.448;10.228;2024-01-15T10:41:22;1.40;1.00
318;DHT22;146;53.448;10.228;2024-01-15T10:44:12;1.30;1.00
318;DHT22;146;53.448;10.228;2024-01-15T10:47:09;1.20;1.00
318;DHT22;146;53.448;10.228;2024-01-15T10:50:00;1.20;1.00
318;DHT22;146;53.448;10.228;2024-01-15T10:52:51;1.20;1.00
318;DHT22;146;53.448;10.228;2024-01-15T10:55:41;1.20;1.00
318;DHT22;146;53.448;10.228;2024-01-15T10:58:31;1.20;1.00
318;DHT22;146;53.448;10.228;2024-01-15T11:01:26;1.20;1.00
318;DHT22;146;53.448;10.228;2024-01-15T11:04:21;1.20;1.00
318;DHT22;146;53.448;10.228;2024-01-15T11:07:08;1.20;1.00
318;DHT22;146;53.448;10.228;2024-01-15T11:10:03;1.20;1.00
318;DHT22;146;53.448;10.228;2024-01-15T11:12:52;1.10;1.00
318;DHT22;146;53.448;10.228;2024-01-15T11:15:58;1.00;1.00
318;DHT22;146;53.448;10.228;2024-01-15T11:19:03;0.90;1.00
318;DHT22;146;53.448;10.228;2024-01-15T11:21:53;0.90;1.00
318;DHT22;146;53.448;10.228;2024-01-15T11:24:42;0.90;1.00
318;DHT22;146;53.448;10.228;2024-01-15T11:27:43;0.80;1.00
318;DHT22;146;53.448;10.228;2024-01-15T11:30:35;0.80;1.00
318;DHT22;146;53.448;10.228;2024-01-15T11:33:44;0.80;1.00
318;DHT22;146;53.448;10.228;2024-01-15T11:37:02;0.90;1.00
318;DHT22;146;53.448;10.228;2024-01-15T11:39:53;0.90;1.00
318;DHT22;146;53.448;10.228;2024-01-15T11:42:44;1.00;1.00
318;DHT22;146;53.448;10.228;2024-01-15T11:45:32;1.00;1.00
318;DHT22;146;53.448;10.228;2024-01-15T11:48:21;1.00;1.00
318;DHT22;146;53.448;10.228;2024-01-15T11:51:11;1.00;1.00
318;DHT22;146;53.448;10.228;2024-01-15T11:54:04;1.10;1.00
318;DHT22;146;53.448;10.228;2024-01-15T11:56:55;1.10;1.00
318;DHT22;146;53.448;10.228;2024-01-15T11:59:43;1.00;1.00
318;DHT22;146;53.448;10.228;2024-01-15T12:02:33;1.10;1.00
318;DHT22;146;53.448;10.228;2024-01-15T12:05:22;1.10;1.00
318;DHT22;146;53.448;10.228;2024-01-15T12:08:12;1.20;1.00
318;DHT22;146;53.448;10.228;2024-01-15T12:11:10;1.20;1.00
318;DHT22;146;53.448;10.228;2024-01-15T12:14:18;1.20;1.00
318;DHT22;146;53.448;10.228;2024-01-15T12:17:11;1.20;1.00
318;DHT22;146;53.448;10.228;2024-01-15T12:20:10;1.20;1.00
318;DHT22;146;53.448;10.228;2024-01-15T12:23:00;1.20;1.00
318;DHT22;146;53.448;10.228;2024-01-15T12:25:49;1.30;1.00
318;DHT22;146;53.448;10.228;2024-01-15T12:28:36;1.30;1.00
318;DHT22;146;53.448;10.228;2024-01-15T12:31:25;1.30;1.00
318;DHT22;146;53.448;10.228;2024-01-15T12:34:12;1.30;1.00
318;DHT22;146;53.448;10.228;2024-01-15T12:37:00;1.40;1.00
318;DHT22;146;53.448;10.228;2024-01-15T12:39:48;1.40;1.00
318;DHT22;146;53.448;10.228;2024-01-15T12:42:40;1.40;1.00
318;DHT22;146;53.448;10.228;2024-01-15T12:45:38;1.40;1.00
318;DHT22;146;53.448;10.228;2024-01-15T12:48:25;1.40;1.00
318;DHT22;146;53.448;10.228;2024-01-15T12:51:13;1.40;1.00
318;DHT22;146;53.448;10.228;2024-01-15T12:54:00;1.30;1.00
318;DHT22;146;53.448;10.228;2024-01-15T12:56:49;1.30;1.00
318;DHT22;146;53.448;10.228;2024-01-15T12:59:36;1.20;1.00
318;DHT22;146;53.448;10.228;2024-01-15T13:02:23;1.30;1.00
318;DHT22;146;53.448;10.228;2024-01-15T13:05:10;1.30;1.00
318;DHT22;146;53.448;10.228;2024-01-15T13:08:01;1.30;1.00
318;DHT22;146;53.448;10.228;2024-01-15T13:10:49;1.30;1.00
318;DHT22;146;53.448;10.228;2024-01-15T13:13:39;1.30;1.00
318;DHT22;146;53.448;10.228;2024-01-15T13:16:26;1.40;1.00
318;DHT22;146;53.448;10.228;2024-01-15T13:19:15;1.40;1.00
318;DHT22;146;53.448;10.228;2024-01-15T13:22:02;1.40;1.00
318;DHT22;146;53.448;10.228;2024-01-15T13:24:55;1.50;1.00
318;DHT22;146;53.448;10.228;2024-01-15T13:27:43;1.60;1.00
318;DHT22;146;53.448;10.228;2024-01-15T13:30:31;1.60;1.00
318;DHT22;146;53.448;10.228;2024-01-15T13:33:18;1.60;1.00
318;DHT22;146;53.448;10.228;2024-01-15T13:36:06;1.70;1.00
318;DHT22;146;53.448;10.228;2024-01-15T13:39:27;1.70;1.00
318;DHT22;146;53.448;10.228;2024-01-15T13:44:53;1.60;1.00
318;DHT22;146;53.448;10.228;2024-01-15T13:47:49;1.60;1.00
318;DHT22;146;53.448;10.228;2024-01-15T13:50:39;1.50;1.00
318;DHT22;146;53.448;10.228;2024-01-15T13:53:29;1.40;1.00
318;DHT22;146;53.448;10.228;2024-01-15T13:56:19;1.50;1.00
318;DHT22;146;53.448;10.228;2024-01-15T13:59:15;1.50;1.00
318;DHT22;146;53.448;10.228;2024-01-15T14:02:02;1.50;1.00
318;DHT22;146;53.448;10.228;2024-01-15T14:04:52;1.40;1.00
318;DHT22;146;53.448;10.228;2024-01-15T14:07:46;1.30;1.00
318;DHT22;146;53.448;10.228;2024-01-15T14:10:38;1.30;1.00
318;DHT22;146;53.448;10.228;2024-01-15T14:13:28;1.30;1.00
318;DHT22;146;53.448;10.228;2024-01-15T14:16:16;1.30;1.00
318;DHT22;146;53.448;10.228;2024-01-15T14:19:03;1.20;1.00
318;DHT22;146;53.448;10.228;2024-01-15T14:21:53;1.20;1.00
318;DHT22;146;53.448;10.228;2024-01-15T14:24:41;1.20;1.00
318;DHT22;146;53.448;10.228;2024-01-15T14:27:34;1.20;1.00
318;DHT22;146;53.448;10.228;2024-01-15T14:30:22;1.20;1.00
318;DHT22;146;53.448;10.228;2024-01-15T14:33:11;1.20;1.00
318;DHT22;146;53.448;10.228;2024-01-15T14:35:58;1.20;1.00
318;DHT22;146;53.448;10.228;2024-01-15T14:38:49;1.10;1.00
318;DHT22;146;53.448;10.228;2024-01-15T14:41:55;1.10;1.00
318;DHT22;146;53.448;10.228;2024-01-15T14:44:46;1.10;1.00
318;DHT22;146;53.448;10.228;2024-01-15T14:47:35;1.00;1.00
318;DHT22;146;53.448;10.228;2024-01-15T14:50:22;1.10;1.00
318;DHT22;146;53.448;10.228;2024-01-15T14:53:13;1.10;1.00
318;DHT22;146;53.448;10.228;2024-01-15T14:56:08;1.10;1.00
318;DHT22;146;53.448;10.228;2024-01-15T14:58:58;1.20;1.00
318;DHT22;146;53.448;10.228;2024-01-15T15:01:52;1.10;1.00
318;DHT22;146;53.448;10.228;2024-01-15T15:04:46;1.10;1.00
318;DHT22;146;53.448;10.228;2024-01-15T15:07:33;1.10;1.00
318;DHT22;146;53.448;10.228;2024-01-15T15:10:29;1.10;1.00
318;DHT22;146;53.448;10.228;2024-01-15T15:16:49;0.90;1.00
318;DHT22;146;53.448;10.228;2024-01-15T15:19:48;0.80;1.00
318;DHT22;146;53.448;10.228;2024-01-15T15:22:38;0.80;1.00
318;DHT22;146;53.448;10.228;2024-01-15T15:25:31;0.80;1.00
318;DHT22;146;53.448;10.228;2024-01-15T15:28:24;0.80;1.00
318;DHT22;146;53.448;10.228;2024-01-15T15:31:20;0.70;1.00
318;DHT22;146;53.448;10.228;2024-01-15T15:34:09;0.80;1.00
318;DHT22;146;53.448;10.228;2024-01-15T15:36:56;0.70;1.00
318;DHT22;146;53.448;10.228;2024-01-15T15:39:46;0.70;1.00
318;DHT22;146;53.448;10.228;2024-01-15T15:42:33;0.70;1.00
318;DHT22;146;53.448;10.228;2024-01-15T15:45:21;0.60;1.00
318;DHT22;146;53.448;10.228;2024-01-15T15:48:17;0.60;1.00
318;DHT22;146;53.448;10.228;2024-01-15T15:51:21;0.60;1.00
318;DHT22;146;53.448;10.228;2024-01-15T15:54:11;0.60;1.00
318;DHT22;146;53.448;10.228;2024-01-15T15:57:10;0.60;1.00
318;DHT22;146;53.448;10.228;2024-01-15T16:00:13;0.60;1.00
318;DHT22;146;53.448;10.228;2024-01-15T16:13:37;0.60;1.00
318;DHT22;146;53.448;10.228;2024-01-15T16:16:24;0.70;1.00
318;DHT22;146;53.448;10.228;2024-01-15T16:19:11;0.70;1.00
318;DHT22;146;53.448;10.228;2024-01-15T16:22:02;0.80;1.00
318;DHT22;146;53.448;10.228;2024-01-15T16:24:55;0.80;1.00
318;DHT22;146;53.448;10.228;2024-01-15T16:27:42;0.80;1.00
318;DHT22;146;53.448;10.228;2024-01-15T16:30:36;0.80;1.00
318;DHT22;146;53.448;10.228;2024-01-15T16:33:29;0.70;1.00
318;DHT22;146;53.448;10.228;2024-01-15T16:36:20;0.70;1.00
318;DHT22;146;53.448;10.228;2024-01-15T16:39:19;0.70;1.00
318;DHT22;146;53.448;10.228;2024-01-15T16:42:10;0.80;1.00
318;DHT22;146;53.448;10.228;2024-01-15T16:44:57;0.80;1.00
318;DHT22;146;53.448;10.228;2024-01-15T16:47:48;0.90;1.00
318;DHT22;146;53.448;10.228;2024-01-15T16:50:36;0.80;1.00
318;DHT22;146;53.448;10.228;2024-01-15T16:53:23;0.80;1.00
318;DHT22;146;53.448;10.228;2024-01-15T16:56:10;0.70;1.00
318;DHT22;146;53.448;10.228;2024-01-15T16:58:57;0.70;1.00
318;DHT22;146;53.448;10.228;2024-01-15T17:01:45;0.60;1.00
318;DHT22;146;53.448;10.228;2024-01-15T17:04:35;0.50;1.00
318;DHT22;146;53.448;10.228;2024-01-15T17:07:47;0.50;1.00
318;DHT22;146;53.448;10.228;2024-01-15T17:10:36;0.40;1.00
318;DHT22;146;53.448;10.228;2024-01-15T17:13:37;0.50;1.00
318;DHT22;146;53.448;10.228;2024-01-15T17:16:42;0.50;1.00
318;DHT22;146;53.448;10.228;2024-01-15T17:19:37;0.50;1.00
318;DHT22;146;53.448;10.228;2024-01-15T17:22:25;0.50;1.00
318;DHT22;146;53.448;10.228;2024-01-15T17:25:12;0.50;1.00
318;DHT22;146;53.448;10.228;2024-01-15T17:27:59;0.50;1.00
318;DHT22;146;53.448;10.228;2024-01-15T17:30:47;0.50;1.00
318;DHT22;146;53.448;10.228;2024-01-15T17:33:34;0.60;1.00
318;DHT22;146;53.448;10.228;2024-01-15T17:36:24;0.70;1.00
318;DHT22;146;53.448;10.228;2024-01-15T17:39:12;0.70;1.00
318;DHT22;146;53.448;10.228;2024-01-15T17:42:00;0.80;1.00
318;DHT22;146;53.448;10.228;2024-01-15T17:44:49;0.80;1.00
318;DHT22;146;53.448;10.228;2024-01-15T17:47:37;0.70;1.00
318;DHT22;146;53.448;10.228;2024-01-15T17:50:34;0.80;1.00
318;DHT22;146;53.448;10.228;2024-01-15T17:53:25;0.80;1.00
318;DHT22;146;53.448;10.228;2024-01-15T17:56:14;1.00;1.00
318;DHT22;146;53.448;10.228;2024-01-15T17:59:04;1.10;1.00
318;DHT22;146;53.448;10.228;2024-01-15T18:01:52;1.10;1.00
318;DHT22;146;53.448;10.228;2024-01-15T18:04:41;1.20;1.00
318;DHT22;146;53.448;10.228;2024-01-15T18:07:28;1.10;1.00
318;DHT22;146;53.448;10.228;2024-01-15T18:10:19;1.20;1.00
318;DHT22;146;53.448;10.228;2024-01-15T18:13:09;1.20;1.00
318;DHT22;146;53.448;10.228;2024-01-15T18:15:57;1.20;1.00
318;DHT22;146;53.448;10.228;2024-01-15T18:18:44;1.30;1.00
318;DHT22;146;53.448;10.228;2024-01-15T18:21:39;1.30;1.00
318;DHT22;146;53.448;10.228;2024-01-15T18:24:32;1.40;1.00
318;DHT22;146;53.448;10.228;2024-01-15T18:27:26;1.40;1.00
318;DHT22;146;53.448;10.228;2024-01-15T18:30:44;1.50;1.00
318;DHT22;146;53.448;10.228;2024-01-15T18:33:44;1.50;1.00
318;DHT22;146;53.448;10.228;2024-01-15T18:36:33;1.50;1.00
318;DHT22;146;53.448;10.228;2024-01-15T18:39:32;1.50;1.00
318;DHT22;146;53.448;10.228;2024-01-15T18:42:26;1.60;1.00
318;DHT22;146;53.448;10.228;2024-01-15T18:45:18;1.70;1.00
318;DHT22;146;53.448;10.228;2024-01-15T18:48:07;1.70;1.00
318;DHT22;146;53.448;10.228;2024-01-15T18:51:20;1.60;1.00
318;DHT22;146;53.448;10.228;2024-01-15T18:54:09;1.80;1.00
318;DHT22;146;53.448;10.228;2024-01-15T18:56:58;1.90;1.00
318;DHT22;146;53.448;10.228;2024-01-15T19:00:13;1.90;1.00
318;DHT22;146;53.448;10.228;2024-01-15T19:03:00;2.00;1.00
318;DHT22;146;53.448;10.228;2024-01-15T19:05:47;1.90;1.00
318;DHT22;146;53.448;10.228;2024-01-15T19:08:34;1.90;1.00
318;DHT22;146;53.448;10.228;2024-01-15T19:11:22;2.00;1.00
318;DHT22;146;53.448;10.228;2024-01-15T19:14:13;2.00;1.00
318;DHT22;146;53.448;10.228;2024-01-15T19:17:07;2.00;1.00
318;DHT22;146;53.448;10.228;2024-01-15T19:19:54;2.00;1.00
318;DHT22;146;53.448;10.228;2024-01-15T19:22:46;2.00;1.00
318;DHT22;146;53.448;10.228;2024-01-15T19:25:34;2.00;1.00
318;DHT22;146;53.448;10.228;2024-01-15T19:28:21;2.10;1.00
318;DHT22;146;53.448;10.228;2024-01-15T19:31:12;2.00;1.00
318;DHT22;146;53.448;10.228;2024-01-15T19:34:04;2.10;1.00
318;DHT22;146;53.448;10.228;2024-01-15T19:36:52;2.10;1.00
318;DHT22;146;53.448;10.228;2024-01-15T19:39:39;2.00;1.00
318;DHT22;146;53.448;10.228;2024-01-15T19:42:27;1.90;1.00
318;DHT22;146;53.448;10.228;2024-01-15T19:45:19;1.80;1.00
318;DHT22;146;53.448;10.228;2024-01-15T19:48:06;2.00;1.00
318;DHT22;146;53.448;10.228;2024-01-15T19:51:10;1.90;1.00
318;DHT22;146;53.448;10.228;2024-01-15T19:53:57;1.80;1.00
318;DHT22;146;53.448;10.228;2024-01-15T19:56:45;1.80;1.00
318;DHT22;146;53.448;10.228;2024-01-15T19:59:32;1.80;1.00
318;DHT22;146;53.448;10.228;2024-01-15T20:02:19;1.80;1.00
318;DHT22;146;53.448;10.228;2024-01-15T20:08:54;1.70;1.00